West Rockport, ME (04865)

1:54 AM EDT on April 23, 2017 (GMT -0400)
Beech Hill Road | | Change Station

Elev 488 ft 44.17 °N, 69.10 °W | Updated 3 minutes ago

Overcast
Overcast
37.9 °F
Feels Like 38 °F
N
0.0
Wind Variable Wind from North
Gusts 0.6 mph

Today
High -- | Low -- °F
--% Chance of Precip.
Yesterday
High -- | Low -- °F
Precip. -- in
Pressure 29.95 in
Visibility 10.0 miles
Clouds Few 800 ft
Overcast 4200 ft
Windchill 38 °F
Dew Point 36 °F
Humidity 93%
Rainfall 0.00 in
Snow Depth Not available.
5:39 AM 7:30 PM
Waning Crescent, 14% visible
SPECI KRKD 230535Z AUTO 31003KT 10SM FEW008 OVC042 03/03 A2995 RMK AO2
Pressure 29.95 in
Visibility 10.0 miles
Clouds Few 800 ft
Overcast 4200 ft
Windchill 38 °F
Dew Point 36 °F
Humidity 93%
Rainfall 0.00 in
Snow Depth Not available.
5:39 AM 7:30 PM
Waning Crescent, 14% visible
SPECI KRKD 230535Z AUTO 31003KT 10SM FEW008 OVC042 03/03 A2995 RMK AO2

Get Severe Weather Alerts

Thanks for signing up!

Be on the lookout for a verification email in your inbox.

You'll start receiving the daily forecast at 8 AM.

×

10-Day Weather Forecast

Almanac

Astronomy

Apr. 23, 2017 Rise Set
Actual Time
Civil Twilight
Nautical Twilight
Astronomical Twilight
Moon
Length of Visible Light
Length of Day
Tomorrow will be .
, % of the Moon is Illuminated

Today's Extremes

State Highs State Lows

Community

WunderPhotos

WunderBlog® & News

Nearby

Air Quality

  Air Quality AQ Index Pollutant
Not available.

Snow Depth

Station Depth Elevation

Earthquake Activity

City Distance Mag. Time & Date
Minimum magnitude displayed is 2.5.

Coastal Water Temperatures

Place Temperature

Stations

Nearby Weather Stations

Station Location Temp. Windchill Dew Point Humidity Wind Precip. Elev Updated Type
                   

Watches & Warnings

There are currently no watches in effect.